Time;durP1;ratioP1;P1;durP2;ratioP2;P2;SDS_P1;SDS_P2;PMS_P1;PMS_P2;Temp;Humidity;BMP_temperature;BMP_pressure;BME280_temperature;BME280_humidity;BME280_pressure;Samples;Min_cycle;Max_cycle;Signal;HPM_P1;HPM_P2
2022/03/21 00:01:56;;;;;;;21.80;14.63;;;9.40;99.90;;;;;;5077086;28;20446;-83
2022/03/21 00:04:23;;;;;;;17.67;13.00;;;9.40;99.90;;;;;;5076147;28;20868;-81
2022/03/21 00:06:50;;;;;;;17.20;13.77;;;9.40;99.90;;;;;;5076867;28;20501;-82
2022/03/21 00:09:17;;;;;;;19.30;13.93;;;9.40;99.90;;;;;;5077956;28;20456;-82
2022/03/21 00:11:44;;;;;;;19.87;14.00;;;9.40;99.90;;;;;;5076489;28;20482;-81
2022/03/21 00:14:12;;;;;;;17.93;13.67;;;9.40;99.90;;;;;;5076640;28;20462;-81
2022/03/21 00:16:41;;;;;;;20.37;15.43;;;9.40;99.90;;;;;;5076723;28;20543;-81
2022/03/21 00:19:11;;;;;;;19.90;13.80;;;9.50;99.90;;;;;;5076628;28;20838;-82
2022/03/21 00:21:38;;;;;;;17.97;13.57;;;9.40;99.90;;;;;;5076767;28;20484;-81
2022/03/21 00:24:08;;;;;;;16.83;13.17;;;9.40;99.90;;;;;;5075902;28;20457;-81
2022/03/21 00:26:43;;;;;;;18.70;12.27;;;9.40;99.90;;;;;;5076800;28;20469;-82
2022/03/21 00:29:10;;;;;;;19.37;14.57;;;9.40;99.90;;;;;;5076398;28;20454;-81
2022/03/21 00:31:37;;;;;;;17.30;13.30;;;9.40;99.90;;;;;;5076722;28;20481;-83
2022/03/21 00:34:08;;;;;;;20.53;13.30;;;9.30;99.90;;;;;;5075269;28;20461;-82
2022/03/21 00:36:35;;;;;;;19.00;13.30;;;9.30;99.90;;;;;;5076064;28;20473;-82
2022/03/21 00:39:22;;;;;;;19.13;15.33;;;9.30;99.90;;;;;;5076602;28;20440;-82
2022/03/21 00:41:55;;;;;;;21.93;14.80;;;9.30;99.90;;;;;;5056096;28;20469;-84
2022/03/21 00:44:22;;;;;;;19.37;13.23;;;9.30;99.90;;;;;;5054961;28;20458;-83
2022/03/21 00:46:49;;;;;;;27.80;15.97;;;9.30;99.90;;;;;;5075888;28;20474;-82
2022/03/21 00:49:20;;;;;;;18.73;14.17;;;9.30;99.90;;;;;;5076902;28;20518;-84
2022/03/21 00:51:46;;;;;;;20.60;14.17;;;9.20;99.90;;;;;;5076433;28;20485;-83
2022/03/21 00:54:16;;;;;;;21.77;14.20;;;9.20;99.90;;;;;;5075393;28;20461;-83
2022/03/21 00:56:43;;;;;;;22.33;14.43;;;9.20;99.90;;;;;;5077548;28;20478;-83
2022/03/21 00:59:10;;;;;;;18.27;14.17;;;9.20;99.90;;;;;;5076701;28;20455;-83
2022/03/21 01:01:39;;;;;;;18.40;14.10;;;9.20;99.90;;;;;;5076867;28;20477;-83
2022/03/21 01:04:06;;;;;;;23.90;15.10;;;9.20;99.90;;;;;;5074991;28;20458;-83
2022/03/21 01:06:36;;;;;;;19.10;14.20;;;9.20;99.90;;;;;;5076268;28;20471;-83
2022/03/21 01:09:12;;;;;;;18.47;13.50;;;9.20;99.90;;;;;;5076608;28;20454;-82
2022/03/21 01:11:43;;;;;;;19.83;14.70;;;9.20;99.90;;;;;;5076779;28;20984;-83
2022/03/21 01:14:13;;;;;;;30.90;15.80;;;9.20;99.90;;;;;;5075925;28;20543;-83
2022/03/21 01:16:40;;;;;;;23.67;13.93;;;9.20;99.90;;;;;;5075942;28;20481;-83
2022/03/21 01:19:07;;;;;;;19.30;13.93;;;9.20;99.90;;;;;;5075033;28;20892;-82
2022/03/21 01:21:38;;;;;;;22.67;15.70;;;9.20;99.90;;;;;;5076006;28;20460;-83
2022/03/21 01:24:06;;;;;;;20.20;13.87;;;9.10;99.90;;;;;;5075754;28;20462;-82
2022/03/21 01:26:32;;;;;;;20.50;15.30;;;9.10;99.90;;;;;;5075979;28;20474;-83
2022/03/21 01:28:59;;;;;;;21.00;16.10;;;9.10;99.90;;;;;;5075660;28;20468;-82
2022/03/21 01:31:26;;;;;;;23.60;14.53;;;9.10;99.90;;;;;;5075916;28;20572;-82
2022/03/21 01:33:56;;;;;;;23.73;15.50;;;9.10;99.90;;;;;;5075232;28;20460;-83
2022/03/21 01:36:23;;;;;;;22.33;16.30;;;9.10;99.90;;;;;;5075985;28;20904;-83
2022/03/21 01:38:54;;;;;;;21.00;14.33;;;9.10;99.90;;;;;;5076065;28;20479;-82
2022/03/21 01:41:20;;;;;;;21.50;15.00;;;9.00;99.90;;;;;;5075933;28;20457;-83
2022/03/21 01:44:02;;;;;;;21.13;14.20;;;9.10;99.90;;;;;;5074414;28;20481;-82
2022/03/21 01:46:29;;;;;;;16.83;12.77;;;9.10;99.90;;;;;;5086548;28;20484;-82
2022/03/21 01:48:56;;;;;;;18.33;12.80;;;9.00;99.90;;;;;;5087259;28;20470;-83
2022/03/21 01:51:24;;;;;;;18.80;14.80;;;9.00;99.90;;;;;;5078153;28;20490;-84
2022/03/21 01:56:40;;;;;;;20.93;12.60;;;8.90;99.90;;;;;;5088380;28;20464;-81
2022/03/21 01:59:07;;;;;;;22.10;14.23;;;8.90;99.90;;;;;;5087856;28;20449;-82
2022/03/21 02:01:34;;;;;;;19.87;13.40;;;8.90;99.90;;;;;;5085489;28;20442;-82
2022/03/21 02:04:00;;;;;;;17.90;13.90;;;8.90;99.90;;;;;;5080510;28;20490;-82
2022/03/21 02:06:28;;;;;;;19.30;13.17;;;8.90;99.90;;;;;;5082533;28;20492;-83
2022/03/21 02:08:58;;;;;;;19.70;13.20;;;9.00;99.90;;;;;;5080565;28;20477;-84
2022/03/21 02:11:25;;;;;;;21.50;14.30;;;9.00;99.90;;;;;;5080819;28;20490;-81
2022/03/21 02:13:53;;;;;;;18.30;13.33;;;9.00;99.90;;;;;;5078198;28;20457;-83
2022/03/21 02:16:20;;;;;;;21.30;14.43;;;9.00;99.90;;;;;;5078143;28;20480;-82
2022/03/21 02:18:48;;;;;;;21.23;12.90;;;9.00;99.90;;;;;;5077791;28;20450;-82
2022/03/21 02:21:22;;;;;;;16.73;14.00;;;9.00;99.90;;;;;;5077248;28;20450;-82
2022/03/21 02:23:56;;;;;;;24.23;14.03;;;9.00;99.90;;;;;;5075957;28;20436;-83
2022/03/21 02:26:25;;;;;;;19.40;13.57;;;9.00;99.90;;;;;;5077395;28;20471;-82
2022/03/21 02:28:52;;;;;;;20.60;14.57;;;9.00;99.90;;;;;;5076247;28;20878;-82
2022/03/21 02:31:20;;;;;;;23.27;14.60;;;9.00;99.90;;;;;;5075803;28;20489;-81
2022/03/21 02:33:48;;;;;;;16.27;13.17;;;9.00;99.90;;;;;;5075528;28;20839;-83
2022/03/21 02:36:17;;;;;;;18.33;12.40;;;9.00;99.90;;;;;;5076991;28;20484;-82
2022/03/21 02:38:45;;;;;;;19.17;13.70;;;8.90;99.90;;;;;;5077621;28;20456;-83
2022/03/21 02:41:13;;;;;;;18.37;13.03;;;8.90;99.90;;;;;;5077025;28;20449;-83
2022/03/21 02:43:52;;;;;;;24.13;15.37;;;8.90;99.90;;;;;;5075418;28;20977;-83
2022/03/21 02:46:19;;;;;;;21.87;14.53;;;8.90;99.90;;;;;;5077188;28;20469;-83
2022/03/21 02:48:46;;;;;;;20.83;13.97;;;8.70;99.90;;;;;;5077031;28;20975;-85
2022/03/21 02:51:14;;;;;;;20.90;15.13;;;8.60;99.90;;;;;;5075476;28;20487;-83
2022/03/21 02:53:42;;;;;;;25.97;16.40;;;8.50;99.90;;;;;;5075838;28;20457;-83
2022/03/21 02:56:09;;;;;;;28.77;16.70;;;8.50;99.90;;;;;;5076608;28;20488;-84
2022/03/21 02:58:36;;;;;;;24.80;15.10;;;8.50;99.90;;;;;;5076694;28;20467;-82
2022/03/21 03:01:08;;;;;;;22.50;16.07;;;8.50;99.90;;;;;;5076451;28;20452;-84
2022/03/21 03:03:35;;;;;;;26.73;17.50;;;8.50;99.90;;;;;;5076370;28;20456;-81
2022/03/21 03:06:03;;;;;;;25.73;17.63;;;8.50;99.90;;;;;;5076322;28;20493;-81
2022/03/21 03:08:30;;;;;;;30.80;19.90;;;8.50;99.90;;;;;;5076365;28;20535;-83
2022/03/21 03:10:56;;;;;;;28.57;19.43;;;8.50;99.90;;;;;;5076424;28;20516;-81
2022/03/21 03:13:24;;;;;;;32.83;20.93;;;8.50;99.90;;;;;;5075037;28;20458;-81
2022/03/21 03:15:50;;;;;;;29.47;19.97;;;8.40;99.90;;;;;;5080432;28;20474;-82
2022/03/21 03:18:19;;;;;;;29.07;20.60;;;8.40;99.90;;;;;;5080546;28;20461;-83
2022/03/21 03:20:49;;;;;;;29.57;21.00;;;8.30;99.90;;;;;;5080165;28;20539;-83
2022/03/21 03:23:18;;;;;;;32.37;20.17;;;8.30;99.90;;;;;;5079435;28;20470;-82
2022/03/21 03:25:44;;;;;;;26.93;19.60;;;8.20;99.90;;;;;;5080448;28;20851;-82
2022/03/21 03:28:11;;;;;;;27.80;19.93;;;8.10;99.90;;;;;;5079715;28;21057;-80
2022/03/21 03:30:39;;;;;;;27.73;20.43;;;8.10;99.90;;;;;;5079835;28;20453;-81
2022/03/21 03:33:06;;;;;;;24.53;18.77;;;8.00;99.90;;;;;;5079264;28;20572;-81
2022/03/21 03:35:34;;;;;;;25.93;19.73;;;8.00;99.90;;;;;;5079482;28;20849;-79
2022/03/21 03:38:01;;;;;;;27.30;19.50;;;7.90;99.90;;;;;;5079795;28;20491;-82
2022/03/21 03:40:28;;;;;;;23.97;18.53;;;7.80;99.90;;;;;;5079209;28;20453;-81
2022/03/21 03:42:55;;;;;;;31.03;20.47;;;7.70;99.90;;;;;;5079130;28;20451;-81
2022/03/21 03:45:22;;;;;;;30.70;20.80;;;7.70;99.90;;;;;;5076823;28;20530;-81
2022/03/21 03:47:49;;;;;;;27.40;20.53;;;7.60;99.90;;;;;;5079450;28;20457;-82
2022/03/21 03:50:16;;;;;;;24.40;17.93;;;7.50;99.90;;;;;;5078322;28;20979;-81
2022/03/21 03:52:46;;;;;;;27.27;20.20;;;7.40;99.90;;;;;;5079103;28;20474;-85
2022/03/21 03:55:13;;;;;;;31.70;20.13;;;7.30;99.90;;;;;;5078047;28;20460;-84
2022/03/21 03:57:39;;;;;;;30.33;20.23;;;7.20;99.90;;;;;;5079291;28;20456;-80
2022/03/21 04:00:08;;;;;;;28.63;22.10;;;7.20;99.90;;;;;;5079033;28;20533;-82
2022/03/21 04:03:44;;;;;;;28.50;19.37;;;7.10;99.90;;;;;;5078347;28;20463;-80
2022/03/21 04:05:23;;;;;;;26.60;19.50;;;7.10;99.90;;;;;;5077653;28;20443;-80
2022/03/21 04:07:51;;;;;;;27.10;20.17;;;7.00;99.90;;;;;;5077931;28;20458;-81
2022/03/21 04:10:20;;;;;;;29.30;21.07;;;7.00;99.90;;;;;;5078546;28;20471;-81
2022/03/21 04:12:48;;;;;;;27.93;20.87;;;7.00;99.90;;;;;;5078399;28;20484;-83
2022/03/21 04:15:15;;;;;;;33.20;20.20;;;7.00;99.90;;;;;;5078074;28;20455;-80
2022/03/21 04:17:42;;;;;;;30.57;21.60;;;7.00;99.90;;;;;;5081681;28;20459;-80
2022/03/21 04:20:10;;;;;;;30.77;21.50;;;7.00;99.90;;;;;;5080971;28;20519;-80
2022/03/21 04:22:37;;;;;;;28.40;20.93;;;7.00;99.90;;;;;;5082066;28;20451;-83
2022/03/21 04:25:09;;;;;;;30.73;21.63;;;7.00;99.90;;;;;;5078848;28;20530;-83
2022/03/21 04:27:38;;;;;;;30.40;21.40;;;7.00;99.90;;;;;;5079127;28;20464;-82
2022/03/21 04:30:06;;;;;;;32.67;20.47;;;7.00;99.90;;;;;;5079675;28;20447;-81
2022/03/21 04:32:33;;;;;;;33.33;23.77;;;7.00;99.90;;;;;;5078808;28;20479;-82
2022/03/21 04:35:00;;;;;;;30.93;22.40;;;7.00;99.90;;;;;;5078400;28;20443;-82
2022/03/21 04:37:27;;;;;;;31.07;20.70;;;6.90;99.90;;;;;;5077874;28;20475;-81
2022/03/21 04:39:54;;;;;;;31.00;21.70;;;6.90;99.90;;;;;;5078397;28;21055;-83
2022/03/21 04:42:22;;;;;;;35.53;21.97;;;6.90;99.90;;;;;;5078185;28;20459;-81
2022/03/21 04:44:50;;;;;;;32.00;23.70;;;6.80;99.90;;;;;;5076277;28;20888;-81
2022/03/21 04:47:17;;;;;;;33.77;21.20;;;6.70;99.90;;;;;;5078260;28;20475;-82
2022/03/21 04:49:44;;;;;;;30.77;21.30;;;6.70;99.90;;;;;;5078695;28;20468;-81
2022/03/21 04:52:12;;;;;;;34.43;21.00;;;6.70;99.90;;;;;;5078332;28;20490;-82
2022/03/21 04:54:39;;;;;;;33.03;19.80;;;6.60;99.90;;;;;;5077558;28;20450;-83
2022/03/21 04:57:08;;;;;;;31.10;21.00;;;6.60;99.90;;;;;;5077634;28;20558;-81
2022/03/21 04:59:37;;;;;;;32.50;20.80;;;6.60;99.90;;;;;;5078119;28;20467;-82
2022/03/21 05:02:05;;;;;;;31.90;20.50;;;6.60;99.90;;;;;;5077483;28;20515;-82
2022/03/21 05:04:32;;;;;;;31.33;20.97;;;6.50;99.90;;;;;;5076332;28;20458;-84
2022/03/21 05:06:59;;;;;;;33.03;20.47;;;6.50;99.90;;;;;;5077512;28;21007;-82
2022/03/21 05:09:26;;;;;;;31.60;22.60;;;6.40;99.90;;;;;;5077942;28;20435;-84
2022/03/21 05:11:53;;;;;;;27.57;19.97;;;6.40;99.90;;;;;;5077377;28;20485;-83
2022/03/21 05:14:20;;;;;;;31.60;21.87;;;6.30;99.90;;;;;;5077569;28;20450;-85
2022/03/21 05:16:48;;;;;;;29.13;22.13;;;6.20;99.90;;;;;;5078165;28;20489;-82
2022/03/21 05:19:15;;;;;;;32.53;22.57;;;6.10;99.90;;;;;;5077639;28;20475;-81
2022/03/21 05:21:42;;;;;;;31.90;21.30;;;6.10;99.90;;;;;;5078159;28;20486;-83
2022/03/21 05:32:33;;;;;;;31.90;21.10;;;5.90;99.90;;;;;;5077824;28;20497;-85
2022/03/21 05:37:44;;;;;;;28.40;22.17;;;5.90;99.90;;;;;;5078428;28;20444;-82
2022/03/21 05:42:57;;;;;;;30.20;21.80;;;5.80;99.90;;;;;;5076791;28;20422;-82
2022/03/21 05:45:24;;;;;;;30.90;22.33;;;5.80;99.90;;;;;;5074826;28;20453;-81
2022/03/21 05:50:38;;;;;;;37.40;22.93;;;5.70;99.90;;;;;;5075189;28;20437;-83
2022/03/21 05:53:06;;;;;;;31.97;22.23;;;5.70;99.90;;;;;;5076672;28;21034;-81
2022/03/21 05:55:33;;;;;;;32.67;20.03;;;5.40;99.90;;;;;;5077360;28;21037;-81
2022/03/21 05:58:00;;;;;;;30.97;22.23;;;5.80;99.90;;;;;;5076885;28;20458;-80
2022/03/21 06:00:27;;;;;;;32.97;22.17;;;5.60;99.90;;;;;;5076588;28;20493;-81
2022/03/21 06:02:56;;;;;;;33.00;20.80;;;5.60;99.90;;;;;;5078160;28;20450;-80
2022/03/21 06:05:23;;;;;;;33.10;21.30;;;5.30;99.90;;;;;;5076149;28;20464;-81
2022/03/21 06:07:51;;;;;;;36.77;22.03;;;5.60;99.90;;;;;;5076378;28;20549;-81
2022/03/21 06:10:18;;;;;;;31.37;20.73;;;5.70;99.90;;;;;;5075658;28;20459;-82
2022/03/21 06:12:45;;;;;;;31.73;23.00;;;5.70;99.90;;;;;;5075893;28;20546;-83
2022/03/21 06:15:13;;;;;;;31.97;22.33;;;5.70;99.90;;;;;;5075555;28;20549;-83
2022/03/21 06:17:40;;;;;;;31.47;21.87;;;5.80;99.90;;;;;;5077155;28;20579;-83
2022/03/21 06:20:11;;;;;;;33.77;20.47;;;5.80;99.90;;;;;;5075713;28;20981;-82
2022/03/21 06:22:38;;;;;;;31.30;22.37;;;5.90;99.90;;;;;;5076298;28;20533;-82
2022/03/21 06:25:06;;;;;;;36.40;23.80;;;5.90;99.90;;;;;;5075818;28;20489;-84
2022/03/21 06:27:34;;;;;;;33.23;24.03;;;6.00;99.90;;;;;;5075622;28;20839;-82
2022/03/21 06:30:02;;;;;;;33.60;23.10;;;6.00;99.90;;;;;;5076023;28;20462;-81
2022/03/21 06:32:28;;;;;;;36.77;24.23;;;6.10;99.90;;;;;;5076017;28;20503;-83
2022/03/21 06:34:55;;;;;;;29.40;21.83;;;6.20;99.90;;;;;;5075287;28;20473;-83
2022/03/21 06:37:23;;;;;;;36.07;23.90;;;6.20;99.90;;;;;;5076180;28;20477;-81
2022/03/21 06:39:50;;;;;;;33.00;24.70;;;6.30;99.90;;;;;;5077233;28;20966;-83
2022/03/21 06:42:21;;;;;;;34.57;23.87;;;6.40;99.90;;;;;;5077293;28;20443;-83
2022/03/21 06:44:48;;;;;;;32.30;24.93;;;6.50;99.90;;;;;;5075529;28;20466;-80
2022/03/21 06:47:15;;;;;;;36.93;23.80;;;6.60;99.90;;;;;;5074891;28;20493;-82
2022/03/21 06:49:42;;;;;;;31.67;22.90;;;6.70;99.90;;;;;;5073646;28;20467;-83
2022/03/21 06:52:09;;;;;;;33.70;24.70;;;6.80;99.90;;;;;;5075928;28;20975;-82
2022/03/21 06:54:37;;;;;;;34.00;24.30;;;6.90;99.90;;;;;;5075781;28;20458;-83
2022/03/21 06:57:05;;;;;;;32.77;24.37;;;7.00;99.90;;;;;;5076506;28;20471;-84
2022/03/21 06:59:32;;;;;;;36.70;26.07;;;7.10;99.90;;;;;;5075907;28;20802;-84
2022/03/21 07:01:59;;;;;;;35.63;26.43;;;7.20;99.90;;;;;;5076471;28;20456;-84
2022/03/21 07:04:26;;;;;;;31.13;23.07;;;7.30;99.90;;;;;;5075732;28;20475;-84
2022/03/21 07:06:53;;;;;;;45.17;25.87;;;7.50;99.90;;;;;;5076991;28;20490;-84
2022/03/21 07:09:20;;;;;;;40.87;26.67;;;7.60;99.90;;;;;;5075720;28;20985;-84
2022/03/21 07:11:49;;;;;;;41.17;25.30;;;7.70;99.90;;;;;;5076942;28;20456;-85
2022/03/21 07:14:16;;;;;;;38.23;25.07;;;7.80;99.90;;;;;;5080707;28;20846;-85
2022/03/21 07:16:43;;;;;;;62.17;28.50;;;8.00;99.90;;;;;;5085522;28;20480;-86
2022/03/21 07:19:10;;;;;;;33.23;23.40;;;8.10;99.90;;;;;;5085572;28;20451;-83
2022/03/21 07:21:36;;;;;;;39.90;24.50;;;8.30;99.90;;;;;;5086033;28;20448;-85
2022/03/21 07:24:04;;;;;;;33.20;23.47;;;8.40;99.90;;;;;;5087390;28;20460;-84
2022/03/21 07:26:32;;;;;;;31.67;23.60;;;8.50;99.90;;;;;;5074671;28;20479;-85
2022/03/21 07:29:00;;;;;;;31.10;23.43;;;8.60;99.90;;;;;;5074511;28;20449;-84
2022/03/21 07:31:29;;;;;;;34.33;23.10;;;8.80;99.90;;;;;;5074855;28;20451;-85
2022/03/21 07:33:56;;;;;;;29.30;21.90;;;8.80;99.90;;;;;;5084968;28;20484;-84
2022/03/21 07:36:23;;;;;;;30.97;21.47;;;9.00;99.90;;;;;;5082354;28;20459;-84
2022/03/21 07:38:50;;;;;;;26.70;21.27;;;9.10;99.90;;;;;;5081543;28;20454;-83
2022/03/21 07:41:26;;;;;;;29.03;19.90;;;9.30;99.90;;;;;;5082507;28;20462;-83
2022/03/21 07:44:00;;;;;;;24.30;17.17;;;9.40;99.90;;;;;;5084553;28;20962;-83
2022/03/21 07:49:12;;;;;;;21.77;15.77;;;9.70;99.90;;;;;;5055264;28;20454;-82
2022/03/21 07:51:43;;;;;;;18.43;13.60;;;9.80;99.90;;;;;;5072780;28;20484;-84
2022/03/21 07:54:11;;;;;;;19.87;14.07;;;10.00;99.90;;;;;;5072335;28;20470;-83
2022/03/21 07:56:38;;;;;;;19.37;14.40;;;10.30;99.90;;;;;;5073942;28;20874;-85
2022/03/21 07:59:07;;;;;;;20.97;13.77;;;10.70;99.90;;;;;;5077334;28;20453;-85
2022/03/21 08:01:34;;;;;;;18.60;13.67;;;11.30;99.90;;;;;;5079210;28;20457;-83
2022/03/21 08:04:04;;;;;;;20.43;14.40;;;11.70;99.90;;;;;;5096080;28;20472;-84
2022/03/21 08:06:34;;;;;;;21.03;13.33;;;12.10;99.90;;;;;;5101940;28;20981;-84
2022/03/21 08:09:01;;;;;;;24.53;13.73;;;12.50;99.90;;;;;;5100095;28;20457;-87
2022/03/21 08:11:28;;;;;;;19.97;13.70;;;12.60;99.90;;;;;;5101328;28;20447;-84
2022/03/21 08:13:56;;;;;;;21.53;15.10;;;13.10;99.90;;;;;;5090250;28;20483;-83
2022/03/21 08:16:24;;;;;;;17.30;13.33;;;13.30;99.90;;;;;;5079266;28;20486;-84
2022/03/21 08:18:52;;;;;;;19.10;13.10;;;13.70;99.90;;;;;;5080175;28;20448;-85
2022/03/21 08:21:20;;;;;;;17.50;13.63;;;14.30;99.90;;;;;;5080484;28;20454;-83
2022/03/21 08:23:49;;;;;;;17.30;13.97;;;15.00;99.90;;;;;;5079397;28;20460;-84
2022/03/21 08:26:17;;;;;;;21.77;13.63;;;15.30;99.90;;;;;;5079978;28;20921;-84
2022/03/21 08:28:45;;;;;;;17.70;13.37;;;16.10;97.70;;;;;;5079739;28;20942;-86
2022/03/21 08:31:13;;;;;;;17.80;13.20;;;16.40;98.80;;;;;;5079122;28;20484;-85
2022/03/21 08:33:42;;;;;;;15.67;12.17;;;16.80;96.50;;;;;;5077670;28;20485;-84
2022/03/21 08:36:09;;;;;;;18.10;12.70;;;17.50;92.50;;;;;;5088846;28;21002;-84
2022/03/21 08:38:36;;;;;;;17.70;14.10;;;18.20;89.30;;;;;;5080152;28;20545;-84
2022/03/21 08:41:03;;;;;;;15.53;12.53;;;18.90;85.10;;;;;;5079065;28;20454;-84
2022/03/21 08:43:30;;;;;;;17.67;13.90;;;19.30;84.50;;;;;;5078096;28;20447;-84
2022/03/21 08:45:56;;;;;;;18.50;12.17;;;20.00;78.90;;;;;;5079541;28;20471;-84
2022/03/21 08:49:23;;;;;;;17.60;11.97;;;20.70;76.20;;;;;;5079043;28;20912;-83
2022/03/21 08:51:12;;;;;;;16.37;14.23;;;21.60;73.50;;;;;;5066210;28;20454;-82
2022/03/21 08:53:39;;;;;;;15.97;13.40;;;21.30;68.10;;;;;;5078085;28;20488;-83
2022/03/21 08:56:08;;;;;;;15.23;12.40;;;20.60;64.60;;;;;;5082935;28;20549;-83
2022/03/21 08:58:34;;;;;;;13.77;12.27;;;20.90;66.60;;;;;;5078896;28;20458;-84
2022/03/21 09:01:03;;;;;;;18.80;12.80;;;21.50;65.80;;;;;;5078943;28;20450;-82
2022/03/21 09:03:30;;;;;;;14.50;12.77;;;22.70;65.10;;;;;;5079417;28;20530;-83
2022/03/21 09:05:58;;;;;;;18.13;14.00;;;22.80;59.20;;;;;;5079575;28;20510;-84
2022/03/21 09:08:27;;;;;;;17.80;13.93;;;23.60;59.50;;;;;;5079365;28;20550;-82
2022/03/21 09:10:56;;;;;;;14.87;13.17;;;23.80;57.10;;;;;;5078477;28;20514;-83
2022/03/21 09:13:23;;;;;;;13.53;12.20;;;24.70;57.40;;;;;;5075774;28;20482;-83
2022/03/21 09:15:50;;;;;;;17.00;13.30;;;25.60;57.80;;;;;;5075347;28;20554;-87
2022/03/21 09:18:18;;;;;;;15.63;13.80;;;26.70;55.10;;;;;;5078216;28;20501;-84
2022/03/21 09:20:45;;;;;;;16.07;13.63;;;26.90;53.50;;;;;;5067082;28;20447;-84
2022/03/21 09:23:12;;;;;;;14.13;12.63;;;26.90;51.90;;;;;;5080295;28;20479;-83
2022/03/21 09:25:40;;;;;;;14.30;12.80;;;26.60;52.70;;;;;;5077799;28;20475;-83
2022/03/21 09:28:08;;;;;;;15.67;13.43;;;26.80;49.50;;;;;;5080059;28;20451;-85
2022/03/21 09:30:36;;;;;;;14.77;13.30;;;27.00;50.20;;;;;;5081355;28;20504;-84
2022/03/21 09:33:06;;;;;;;16.40;13.63;;;27.60;49.60;;;;;;5077177;28;20459;-86
2022/03/21 09:35:37;;;;;;;14.97;12.27;;;27.60;48.70;;;;;;5070043;28;20475;-83
2022/03/21 09:38:04;;;;;;;15.00;13.50;;;28.40;47.60;;;;;;5075015;28;20447;-83
2022/03/21 09:40:31;;;;;;;15.23;13.73;;;27.80;48.30;;;;;;5079897;28;20459;-82
2022/03/21 09:42:59;;;;;;;14.53;12.77;;;28.20;47.40;;;;;;5080237;28;20550;-83
2022/03/21 09:45:26;;;;;;;15.10;12.03;;;27.90;47.40;;;;;;5080840;28;20818;-83
2022/03/21 09:48:12;;;;;;;13.50;12.30;;;27.70;47.40;;;;;;5080710;28;20457;-84
2022/03/21 09:50:42;;;;;;;15.70;13.40;;;28.90;48.90;;;;;;5079821;28;20451;-83
2022/03/21 09:53:11;;;;;;;16.77;13.50;;;28.30;46.10;;;;;;5074368;28;20510;-83
2022/03/21 09:55:39;;;;;;;15.20;13.60;;;29.20;47.40;;;;;;5060305;28;20502;-83
2022/03/21 09:58:10;;;;;;;14.53;13.00;;;29.20;48.20;;;;;;5075204;28;20455;-82
2022/03/21 10:00:37;;;;;;;14.40;13.00;;;29.10;44.20;;;;;;5080259;28;20912;-83
2022/03/21 10:03:04;;;;;;;17.80;15.43;;;29.60;46.80;;;;;;5074889;28;20458;-84
2022/03/21 10:05:36;;;;;;;21.33;16.80;;;29.10;45.70;;;;;;5092670;28;21042;-83
2022/03/21 10:08:19;;;;;;;15.00;13.40;;;29.10;46.60;;;;;;5093064;28;20506;-82
2022/03/21 10:10:53;;;;;;;13.43;12.03;;;30.60;47.10;;;;;;5059817;28;20550;-83
2022/03/21 10:13:23;;;;;;;14.47;12.97;;;30.70;45.20;;;;;;5059252;28;20523;-84
2022/03/21 10:15:54;;;;;;;14.87;13.07;;;31.00;46.20;;;;;;5059849;28;20961;-84
2022/03/21 10:18:21;;;;;;;13.67;12.47;;;31.50;44.50;;;;;;5065985;28;20809;-83
2022/03/21 10:20:52;;;;;;;16.00;14.33;;;30.70;43.90;;;;;;5081222;28;20466;-83
2022/03/21 10:23:22;;;;;;;13.50;12.30;;;30.80;44.50;;;;;;5074365;28;20487;-87
2022/03/21 10:25:49;;;;;;;16.97;13.90;;;30.00;44.40;;;;;;5079018;28;20474;-84
2022/03/21 10:28:40;;;;;;;17.50;13.90;;;31.20;44.10;;;;;;5080022;28;20467;-85
2022/03/21 10:31:07;;;;;;;14.83;13.30;;;31.70;45.40;;;;;;5079609;28;20455;-84
2022/03/21 10:33:34;;;;;;;15.60;14.03;;;31.50;42.80;;;;;;5078879;28;20447;-83
2022/03/21 10:36:07;;;;;;;14.17;12.60;;;30.50;43.40;;;;;;5079310;28;21013;-84
2022/03/21 10:38:38;;;;;;;16.10;14.13;;;31.50;43.20;;;;;;5080032;28;20455;-86
2022/03/21 10:41:08;;;;;;;17.23;14.53;;;31.60;43.10;;;;;;5079544;28;20451;-83
2022/03/21 10:43:37;;;;;;;14.50;12.80;;;31.80;43.00;;;;;;5078779;28;20479;-84
2022/03/21 10:46:09;;;;;;;16.80;14.63;;;32.00;42.90;;;;;;5079118;28;20544;-86
2022/03/21 10:48:36;;;;;;;15.83;14.33;;;31.40;42.60;;;;;;5079507;28;20443;-84
2022/03/21 10:51:04;;;;;;;15.13;13.50;;;31.60;42.60;;;;;;5079672;28;20494;-84
2022/03/21 10:53:38;;;;;;;14.67;13.37;;;31.10;43.60;;;;;;5078474;28;20451;-84
2022/03/21 10:56:08;;;;;;;14.83;13.33;;;32.50;42.00;;;;;;5078257;28;20502;-86
2022/03/21 10:58:38;;;;;;;14.37;12.87;;;31.10;42.60;;;;;;5079043;28;20444;-86
2022/03/21 11:01:14;;;;;;;13.87;12.50;;;32.60;42.20;;;;;;5078511;28;20494;-86
2022/03/21 11:03:42;;;;;;;15.17;13.67;;;32.30;41.60;;;;;;5079555;28;20510;-84
2022/03/21 11:06:09;;;;;;;13.90;12.70;;;33.70;43.60;;;;;;5080637;28;20525;-85
2022/03/21 11:08:37;;;;;;;14.10;12.77;;;34.30;41.30;;;;;;5080551;28;20511;-85
2022/03/21 11:11:08;;;;;;;14.07;12.77;;;33.30;40.80;;;;;;5080091;28;20439;-86
2022/03/21 11:13:37;;;;;;;14.87;12.60;;;33.80;41.80;;;;;;5078577;28;20453;-84
2022/03/21 11:16:04;;;;;;;14.67;13.17;;;34.50;40.60;;;;;;5071939;28;20511;-86
2022/03/21 11:18:31;;;;;;;14.73;13.13;;;33.40;40.90;;;;;;5065480;28;20451;-86
2022/03/21 11:21:02;;;;;;;13.00;11.70;;;34.30;43.10;;;;;;5079004;28;20899;-86
2022/03/21 11:23:30;;;;;;;15.40;11.57;;;34.00;40.50;;;;;;5077656;28;20443;-83
2022/03/21 11:26:01;;;;;;;13.90;11.77;;;33.60;42.50;;;;;;5078758;28;20474;-85
2022/03/21 11:28:54;;;;;;;12.83;11.53;;;33.90;40.40;;;;;;5079086;28;20499;-84
2022/03/21 11:31:47;;;;;;;13.60;12.30;;;34.40;41.00;;;;;;5077192;28;20472;-85
2022/03/21 11:34:26;;;;;;;13.83;11.73;;;34.70;39.90;;;;;;5078267;28;20424;-84
2022/03/21 11:36:57;;;;;;;14.73;12.97;;;34.10;39.30;;;;;;5081091;28;20460;-84
2022/03/21 11:39:30;;;;;;;12.77;11.57;;;33.90;39.40;;;;;;5080828;28;20801;-84
2022/03/21 11:41:59;;;;;;;14.70;13.20;;;33.70;39.50;;;;;;5082006;28;20451;-86
2022/03/21 11:44:28;;;;;;;12.80;11.50;;;33.40;39.90;;;;;;5082228;28;20478;-85
2022/03/21 11:47:23;;;;;;;14.00;12.63;;;34.70;41.30;;;;;;5070998;28;20468;-84
2022/03/21 11:49:51;;;;;;;13.30;11.20;;;35.50;40.50;;;;;;5081881;28;20435;-84
2022/03/21 11:52:18;;;;;;;13.07;11.93;;;37.10;41.10;;;;;;5080993;28;20451;-84
2022/03/21 11:54:47;;;;;;;12.37;11.07;;;35.70;38.30;;;;;;5082339;28;20955;-83
2022/03/21 11:57:29;;;;;;;13.67;12.20;;;34.90;38.80;;;;;;5082510;28;20585;-87
2022/03/21 11:59:59;;;;;;;11.00;9.90;;;34.90;38.50;;;;;;5081975;28;20443;-84
2022/03/21 12:02:55;;;;;;;10.40;9.40;;;34.20;39.40;;;;;;5081181;28;20450;-86
2022/03/21 12:05:53;;;;;;;11.87;10.70;;;33.50;40.20;;;;;;5060880;28;20478;-84
2022/03/21 12:08:51;;;;;;;11.93;10.13;;;32.50;40.30;;;;;;5060225;28;20436;-84
2022/03/21 12:12:02;;;;;;;11.63;10.57;;;34.50;41.90;;;;;;5061034;28;20439;-86
2022/03/21 12:14:40;;;;;;;10.17;9.07;;;35.40;38.50;;;;;;5060863;28;20486;-84
2022/03/21 12:17:30;;;;;;;9.57;8.67;;;35.20;39.10;;;;;;5081433;28;20474;-85
2022/03/21 12:20:08;;;;;;;8.30;7.50;;;36.30;38.80;;;;;;5058709;28;20440;-83
2022/03/21 12:22:37;;;;;;;10.07;8.67;;;36.40;38.20;;;;;;5075062;28;20447;-82
2022/03/21 12:25:07;;;;;;;9.97;8.57;;;36.00;37.60;;;;;;5079824;28;20528;-82
2022/03/21 12:27:36;;;;;;;8.83;8.03;;;36.00;37.80;;;;;;5080231;28;20486;-84
2022/03/21 12:30:32;;;;;;;11.23;7.90;;;36.20;39.60;;;;;;5071115;28;20982;-84
2022/03/21 12:33:02;;;;;;;8.40;7.50;;;35.50;38.30;;;;;;5069985;28;20998;-83
2022/03/21 12:36:07;;;;;;;9.43;8.33;;;34.90;39.60;;;;;;5076041;28;20459;-83
2022/03/21 12:38:39;;;;;;;8.60;7.80;;;34.00;39.90;;;;;;5088242;28;20455;-85
2022/03/21 12:41:14;;;;;;;10.57;8.67;;;35.50;39.20;;;;;;5089461;28;20507;-85
2022/03/21 12:43:55;;;;;;;9.80;8.00;;;34.90;38.90;;;;;;5084710;28;20535;-83
2022/03/21 12:46:24;;;;;;;8.40;7.50;;;35.90;39.00;;;;;;5084497;28;20471;-86
2022/03/21 12:48:57;;;;;;;9.60;7.60;;;36.50;37.80;;;;;;5088744;28;20459;-83
2022/03/21 12:51:35;;;;;;;10.10;6.43;;;35.40;38.80;;;;;;5089715;28;20451;-85
2022/03/21 12:54:03;;;;;;;7.43;6.70;;;34.30;38.00;;;;;;5080584;28;20507;-83
2022/03/21 12:56:34;;;;;;;7.70;6.33;;;35.00;38.50;;;;;;5086735;28;20474;-83
2022/03/21 12:59:03;;;;;;;9.80;6.73;;;36.00;39.00;;;;;;5086177;28;20443;-82
2022/03/21 13:01:31;;;;;;;12.13;6.60;;;35.60;37.60;;;;;;5089436;28;20450;-83
2022/03/21 13:12:26;;;;;;;9.90;6.70;;;35.30;39.60;;;;;;5075190;28;20445;-82
2022/03/21 13:15:02;;;;;;;8.53;7.60;;;35.90;37.90;;;;;;5085694;28;20490;-80
2022/03/21 13:17:46;;;;;;;8.03;6.67;;;35.00;37.60;;;;;;5086186;28;21078;-82